sensor_id;sensor_type;location;lat;lon;timestamp;P1;durP1;ratioP1;P2;durP2;ratioP2
34248;SDS011;20508;50.834;3.160;2022-08-04T00:00:11;2.58;;;1.52;;
34248;SDS011;20508;50.834;3.160;2022-08-04T00:02:55;3.88;;;1.52;;
34248;SDS011;20508;50.834;3.160;2022-08-04T00:05:51;2.92;;;1.42;;
34248;SDS011;20508;50.834;3.160;2022-08-04T00:08:40;3.50;;;1.83;;
34248;SDS011;20508;50.834;3.160;2022-08-04T00:11:26;4.18;;;1.45;;
34248;SDS011;20508;50.834;3.160;2022-08-04T00:14:03;2.28;;;1.50;;
34248;SDS011;20508;50.834;3.160;2022-08-04T00:16:37;3.45;;;1.50;;
34248;SDS011;20508;50.834;3.160;2022-08-04T00:19:17;1.67;;;1.50;;
34248;SDS011;20508;50.834;3.160;2022-08-04T00:22:03;3.22;;;1.58;;
34248;SDS011;20508;50.834;3.160;2022-08-04T00:24:36;2.80;;;1.40;;
34248;SDS011;20508;50.834;3.160;2022-08-04T00:27:11;3.22;;;1.60;;
34248;SDS011;20508;50.834;3.160;2022-08-04T00:29:40;3.75;;;1.85;;
34248;SDS011;20508;50.834;3.160;2022-08-04T00:32:17;2.55;;;1.45;;
34248;SDS011;20508;50.834;3.160;2022-08-04T00:34:48;2.92;;;1.75;;
34248;SDS011;20508;50.834;3.160;2022-08-04T00:37:17;1.90;;;1.60;;
34248;SDS011;20508;50.834;3.160;2022-08-04T00:39:46;2.78;;;1.90;;
34248;SDS011;20508;50.834;3.160;2022-08-04T00:42:44;2.42;;;1.65;;
34248;SDS011;20508;50.834;3.160;2022-08-04T00:45:47;3.53;;;2.05;;
34248;SDS011;20508;50.834;3.160;2022-08-04T00:54:40;3.17;;;1.70;;
34248;SDS011;20508;50.834;3.160;2022-08-04T00:57:43;3.42;;;1.63;;
34248;SDS011;20508;50.834;3.160;2022-08-04T01:00:46;3.65;;;1.80;;
34248;SDS011;20508;50.834;3.160;2022-08-04T01:12:30;3.08;;;1.40;;
34248;SDS011;20508;50.834;3.160;2022-08-04T01:15:25;4.05;;;1.75;;
34248;SDS011;20508;50.834;3.160;2022-08-04T01:22:09;3.67;;;1.92;;
34248;SDS011;20508;50.834;3.160;2022-08-04T01:25:39;3.50;;;2.00;;
34248;SDS011;20508;50.834;3.160;2022-08-04T01:28:14;4.70;;;2.08;;
34248;SDS011;20508;50.834;3.160;2022-08-04T01:30:55;3.65;;;1.98;;
34248;SDS011;20508;50.834;3.160;2022-08-04T01:33:38;2.72;;;1.55;;
34248;SDS011;20508;50.834;3.160;2022-08-04T01:36:30;2.97;;;1.70;;
34248;SDS011;20508;50.834;3.160;2022-08-04T01:39:18;3.65;;;2.00;;
34248;SDS011;20508;50.834;3.160;2022-08-04T01:42:04;2.78;;;1.60;;
34248;SDS011;20508;50.834;3.160;2022-08-04T01:44:38;2.40;;;1.30;;
34248;SDS011;20508;50.834;3.160;2022-08-04T01:47:10;3.22;;;1.73;;
34248;SDS011;20508;50.834;3.160;2022-08-04T01:49:41;3.42;;;1.60;;
34248;SDS011;20508;50.834;3.160;2022-08-04T01:52:29;2.65;;;1.85;;
34248;SDS011;20508;50.834;3.160;2022-08-04T01:55:02;3.40;;;1.73;;
34248;SDS011;20508;50.834;3.160;2022-08-04T01:57:42;4.13;;;1.75;;
34248;SDS011;20508;50.834;3.160;2022-08-04T02:00:25;2.25;;;1.50;;
34248;SDS011;20508;50.834;3.160;2022-08-04T02:02:55;2.50;;;1.50;;
34248;SDS011;20508;50.834;3.160;2022-08-04T02:05:47;3.83;;;1.98;;
34248;SDS011;20508;50.834;3.160;2022-08-04T02:13:42;2.42;;;1.30;;
34248;SDS011;20508;50.834;3.160;2022-08-04T02:16:31;4.20;;;1.30;;
34248;SDS011;20508;50.834;3.160;2022-08-04T02:22:19;2.95;;;1.10;;
34248;SDS011;20508;50.834;3.160;2022-08-04T02:24:57;2.70;;;1.25;;
34248;SDS011;20508;50.834;3.160;2022-08-04T02:30:49;3.10;;;1.38;;
34248;SDS011;20508;50.834;3.160;2022-08-04T02:36:49;3.83;;;1.30;;
34248;SDS011;20508;50.834;3.160;2022-08-04T02:39:36;1.38;;;1.17;;
34248;SDS011;20508;50.834;3.160;2022-08-04T02:42:19;3.30;;;1.33;;
34248;SDS011;20508;50.834;3.160;2022-08-04T02:44:51;4.50;;;1.38;;
34248;SDS011;20508;50.834;3.160;2022-08-04T02:47:29;2.25;;;1.10;;
34248;SDS011;20508;50.834;3.160;2022-08-04T02:50:00;5.53;;;1.17;;
34248;SDS011;20508;50.834;3.160;2022-08-04T02:52:32;2.83;;;1.25;;
34248;SDS011;20508;50.834;3.160;2022-08-04T02:55:08;1.77;;;1.35;;
34248;SDS011;20508;50.834;3.160;2022-08-04T02:57:38;2.33;;;1.20;;
34248;SDS011;20508;50.834;3.160;2022-08-04T03:00:25;3.10;;;1.10;;
34248;SDS011;20508;50.834;3.160;2022-08-04T03:05:50;4.07;;;0.98;;
34248;SDS011;20508;50.834;3.160;2022-08-04T03:08:29;3.25;;;1.10;;
34248;SDS011;20508;50.834;3.160;2022-08-04T03:20:52;4.53;;;1.38;;
34248;SDS011;20508;50.834;3.160;2022-08-04T03:26:29;1.85;;;1.23;;
34248;SDS011;20508;50.834;3.160;2022-08-04T03:35:35;2.83;;;1.40;;
34248;SDS011;20508;50.834;3.160;2022-08-04T03:44:34;2.85;;;1.48;;
34248;SDS011;20508;50.834;3.160;2022-08-04T03:47:44;3.70;;;2.08;;
34248;SDS011;20508;50.834;3.160;2022-08-04T03:51:00;3.10;;;1.60;;
34248;SDS011;20508;50.834;3.160;2022-08-04T04:00:33;2.17;;;1.40;;
34248;SDS011;20508;50.834;3.160;2022-08-04T04:03:22;2.13;;;1.50;;
34248;SDS011;20508;50.834;3.160;2022-08-04T04:06:28;3.03;;;1.70;;
34248;SDS011;20508;50.834;3.160;2022-08-04T04:17:48;2.40;;;1.92;;
34248;SDS011;20508;50.834;3.160;2022-08-04T04:26:25;4.60;;;1.88;;
34248;SDS011;20508;50.834;3.160;2022-08-04T04:43:39;7.30;;;4.82;;
34248;SDS011;20508;50.834;3.160;2022-08-04T04:46:39;7.55;;;4.82;;
34248;SDS011;20508;50.834;3.160;2022-08-04T04:52:57;12.38;;;7.32;;
34248;SDS011;20508;50.834;3.160;2022-08-04T04:55:52;11.23;;;7.45;;
34248;SDS011;20508;50.834;3.160;2022-08-04T04:58:49;12.30;;;7.82;;
34248;SDS011;20508;50.834;3.160;2022-08-04T05:09:45;13.35;;;8.35;;
34248;SDS011;20508;50.834;3.160;2022-08-04T05:15:39;17.70;;;9.73;;
34248;SDS011;20508;50.834;3.160;2022-08-04T05:18:25;17.92;;;10.15;;
34248;SDS011;20508;50.834;3.160;2022-08-04T05:21:32;27.60;;;13.10;;
34248;SDS011;20508;50.834;3.160;2022-08-04T05:24:31;26.38;;;13.27;;
34248;SDS011;20508;50.834;3.160;2022-08-04T05:27:31;28.48;;;14.70;;
34248;SDS011;20508;50.834;3.160;2022-08-04T05:30:24;27.38;;;13.93;;
34248;SDS011;20508;50.834;3.160;2022-08-04T05:33:14;28.92;;;14.60;;
34248;SDS011;20508;50.834;3.160;2022-08-04T05:36:05;27.52;;;14.25;;
34248;SDS011;20508;50.834;3.160;2022-08-04T05:38:47;27.55;;;14.30;;
34248;SDS011;20508;50.834;3.160;2022-08-04T05:41:25;32.58;;;16.92;;
34248;SDS011;20508;50.834;3.160;2022-08-04T05:44:03;27.53;;;14.83;;
34248;SDS011;20508;50.834;3.160;2022-08-04T05:46:32;30.10;;;16.05;;
34248;SDS011;20508;50.834;3.160;2022-08-04T05:52:20;26.38;;;15.63;;
34248;SDS011;20508;50.834;3.160;2022-08-04T05:54:49;26.83;;;15.70;;
34248;SDS011;20508;50.834;3.160;2022-08-04T05:57:29;37.72;;;19.98;;
34248;SDS011;20508;50.834;3.160;2022-08-04T06:00:00;41.20;;;20.45;;
34248;SDS011;20508;50.834;3.160;2022-08-04T06:02:41;36.85;;;20.98;;
34248;SDS011;20508;50.834;3.160;2022-08-04T06:05:13;32.80;;;19.67;;
34248;SDS011;20508;50.834;3.160;2022-08-04T06:07:44;35.30;;;20.58;;
34248;SDS011;20508;50.834;3.160;2022-08-04T06:10:12;39.05;;;20.77;;
34248;SDS011;20508;50.834;3.160;2022-08-04T06:15:39;37.90;;;21.58;;
34248;SDS011;20508;50.834;3.160;2022-08-04T06:18:10;32.03;;;19.45;;
34248;SDS011;20508;50.834;3.160;2022-08-04T06:20:41;39.40;;;21.00;;
34248;SDS011;20508;50.834;3.160;2022-08-04T06:23:20;41.92;;;23.30;;
34248;SDS011;20508;50.834;3.160;2022-08-04T06:25:50;38.00;;;22.13;;
34248;SDS011;20508;50.834;3.160;2022-08-04T06:28:19;41.67;;;23.05;;
34248;SDS011;20508;50.834;3.160;2022-08-04T06:30:47;36.80;;;21.55;;
34248;SDS011;20508;50.834;3.160;2022-08-04T06:33:19;38.10;;;21.58;;
34248;SDS011;20508;50.834;3.160;2022-08-04T06:35:51;40.33;;;22.05;;
34248;SDS011;20508;50.834;3.160;2022-08-04T06:38:23;35.63;;;22.17;;
34248;SDS011;20508;50.834;3.160;2022-08-04T06:43:28;37.97;;;22.90;;
34248;SDS011;20508;50.834;3.160;2022-08-04T06:45:56;36.47;;;21.88;;
34248;SDS011;20508;50.834;3.160;2022-08-04T06:48:26;36.50;;;22.30;;
34248;SDS011;20508;50.834;3.160;2022-08-04T06:50:53;39.22;;;22.98;;
34248;SDS011;20508;50.834;3.160;2022-08-04T06:53:23;39.03;;;23.63;;
34248;SDS011;20508;50.834;3.160;2022-08-04T06:55:53;44.85;;;25.45;;
34248;SDS011;20508;50.834;3.160;2022-08-04T06:58:22;48.75;;;26.50;;
34248;SDS011;20508;50.834;3.160;2022-08-04T07:00:49;49.13;;;25.25;;
34248;SDS011;20508;50.834;3.160;2022-08-04T07:03:17;41.42;;;24.00;;
34248;SDS011;20508;50.834;3.160;2022-08-04T07:05:51;44.88;;;24.67;;
34248;SDS011;20508;50.834;3.160;2022-08-04T07:08:18;45.15;;;24.77;;
34248;SDS011;20508;50.834;3.160;2022-08-04T07:10:54;42.33;;;23.85;;
34248;SDS011;20508;50.834;3.160;2022-08-04T07:13:26;41.20;;;23.25;;
34248;SDS011;20508;50.834;3.160;2022-08-04T07:15:55;38.97;;;23.70;;
34248;SDS011;20508;50.834;3.160;2022-08-04T07:18:23;36.33;;;21.55;;
34248;SDS011;20508;50.834;3.160;2022-08-04T07:20:50;37.45;;;22.17;;
34248;SDS011;20508;50.834;3.160;2022-08-04T07:23:21;33.97;;;22.05;;
34248;SDS011;20508;50.834;3.160;2022-08-04T07:25:57;34.75;;;20.42;;
34248;SDS011;20508;50.834;3.160;2022-08-04T07:28:24;39.08;;;21.83;;
34248;SDS011;20508;50.834;3.160;2022-08-04T07:30:55;37.83;;;22.10;;
34248;SDS011;20508;50.834;3.160;2022-08-04T07:33:23;34.67;;;20.85;;
34248;SDS011;20508;50.834;3.160;2022-08-04T07:35:54;35.85;;;21.08;;
34248;SDS011;20508;50.834;3.160;2022-08-04T07:38:21;33.60;;;21.67;;
34248;SDS011;20508;50.834;3.160;2022-08-04T07:40:50;34.70;;;20.75;;
34248;SDS011;20508;50.834;3.160;2022-08-04T07:43:16;29.45;;;20.42;;
34248;SDS011;20508;50.834;3.160;2022-08-04T07:45:43;26.35;;;18.52;;
34248;SDS011;20508;50.834;3.160;2022-08-04T07:48:09;29.52;;;20.35;;
34248;SDS011;20508;50.834;3.160;2022-08-04T07:50:35;29.15;;;19.02;;
34248;SDS011;20508;50.834;3.160;2022-08-04T07:53:05;28.25;;;18.88;;
34248;SDS011;20508;50.834;3.160;2022-08-04T07:55:41;29.08;;;19.15;;
34248;SDS011;20508;50.834;3.160;2022-08-04T07:58:09;29.90;;;19.27;;
34248;SDS011;20508;50.834;3.160;2022-08-04T08:00:35;32.15;;;20.98;;
34248;SDS011;20508;50.834;3.160;2022-08-04T08:03:02;36.30;;;21.63;;
34248;SDS011;20508;50.834;3.160;2022-08-04T08:05:29;35.78;;;21.83;;
34248;SDS011;20508;50.834;3.160;2022-08-04T08:07:58;32.20;;;21.25;;
34248;SDS011;20508;50.834;3.160;2022-08-04T08:10:24;40.15;;;22.95;;
34248;SDS011;20508;50.834;3.160;2022-08-04T08:12:51;34.47;;;21.92;;
34248;SDS011;20508;50.834;3.160;2022-08-04T08:15:25;33.35;;;20.58;;
34248;SDS011;20508;50.834;3.160;2022-08-04T08:17:54;36.40;;;21.95;;
34248;SDS011;20508;50.834;3.160;2022-08-04T08:20:21;31.63;;;21.77;;
34248;SDS011;20508;50.834;3.160;2022-08-04T08:23:17;31.98;;;20.80;;
34248;SDS011;20508;50.834;3.160;2022-08-04T08:25:46;34.58;;;20.83;;
34248;SDS011;20508;50.834;3.160;2022-08-04T08:33:31;32.35;;;21.65;;
34248;SDS011;20508;50.834;3.160;2022-08-04T08:49:43;27.58;;;18.10;;
34248;SDS011;20508;50.834;3.160;2022-08-04T08:52:25;30.40;;;20.13;;
34248;SDS011;20508;50.834;3.160;2022-08-04T09:09:35;21.73;;;16.40;;
34248;SDS011;20508;50.834;3.160;2022-08-04T09:23:14;29.67;;;16.70;;
34248;SDS011;20508;50.834;3.160;2022-08-04T09:25:54;30.65;;;16.30;;
34248;SDS011;20508;50.834;3.160;2022-08-04T09:28:28;38.28;;;16.52;;
34248;SDS011;20508;50.834;3.160;2022-08-04T09:31:06;27.20;;;15.50;;
34248;SDS011;20508;50.834;3.160;2022-08-04T09:33:47;23.25;;;13.88;;
34248;SDS011;20508;50.834;3.160;2022-08-04T09:41:58;18.70;;;14.13;;
34248;SDS011;20508;50.834;3.160;2022-08-04T09:45:06;18.40;;;14.48;;
34248;SDS011;20508;50.834;3.160;2022-08-04T09:47:47;19.97;;;14.67;;
34248;SDS011;20508;50.834;3.160;2022-08-04T09:50:27;21.52;;;14.25;;
34248;SDS011;20508;50.834;3.160;2022-08-04T10:00:55;16.63;;;12.18;;
34248;SDS011;20508;50.834;3.160;2022-08-04T10:03:33;18.67;;;12.85;;
34248;SDS011;20508;50.834;3.160;2022-08-04T10:08:42;15.95;;;12.07;;
34248;SDS011;20508;50.834;3.160;2022-08-04T10:11:21;20.90;;;12.52;;
34248;SDS011;20508;50.834;3.160;2022-08-04T10:14:04;32.55;;;16.38;;
34248;SDS011;20508;50.834;3.160;2022-08-04T10:17:11;28.85;;;15.65;;
34248;SDS011;20508;50.834;3.160;2022-08-04T10:19:55;23.17;;;15.13;;
34248;SDS011;20508;50.834;3.160;2022-08-04T10:22:43;18.48;;;13.30;;
34248;SDS011;20508;50.834;3.160;2022-08-04T10:28:20;22.58;;;14.15;;
34248;SDS011;20508;50.834;3.160;2022-08-04T10:30:54;16.90;;;12.82;;
34248;SDS011;20508;50.834;3.160;2022-08-04T10:34:26;18.80;;;12.82;;
34248;SDS011;20508;50.834;3.160;2022-08-04T10:37:02;17.52;;;12.75;;
34248;SDS011;20508;50.834;3.160;2022-08-04T10:39:41;19.23;;;12.15;;
34248;SDS011;20508;50.834;3.160;2022-08-04T10:42:32;19.25;;;12.20;;
34248;SDS011;20508;50.834;3.160;2022-08-04T10:47:40;13.57;;;11.13;;
34248;SDS011;20508;50.834;3.160;2022-08-04T10:50:26;14.63;;;11.40;;
34248;SDS011;20508;50.834;3.160;2022-08-04T10:52:56;13.98;;;10.82;;
34248;SDS011;20508;50.834;3.160;2022-08-04T10:55:51;14.13;;;11.25;;
34248;SDS011;20508;50.834;3.160;2022-08-04T10:58:39;12.32;;;10.90;;
34248;SDS011;20508;50.834;3.160;2022-08-04T11:01:16;11.15;;;10.07;;
34248;SDS011;20508;50.834;3.160;2022-08-04T11:03:55;13.90;;;10.38;;
34248;SDS011;20508;50.834;3.160;2022-08-04T11:06:25;10.32;;;9.43;;
34248;SDS011;20508;50.834;3.160;2022-08-04T11:08:53;11.05;;;10.02;;
34248;SDS011;20508;50.834;3.160;2022-08-04T11:14:19;10.75;;;9.60;;
34248;SDS011;20508;50.834;3.160;2022-08-04T11:16:55;11.95;;;9.32;;
34248;SDS011;20508;50.834;3.160;2022-08-04T11:19:31;11.32;;;8.68;;
34248;SDS011;20508;50.834;3.160;2022-08-04T11:22:14;11.25;;;8.68;;
34248;SDS011;20508;50.834;3.160;2022-08-04T11:25:06;12.45;;;8.13;;
34248;SDS011;20508;50.834;3.160;2022-08-04T11:30:23;7.97;;;7.18;;
34248;SDS011;20508;50.834;3.160;2022-08-04T11:38:51;8.15;;;6.78;;
34248;SDS011;20508;50.834;3.160;2022-08-04T11:41:36;7.38;;;6.68;;
34248;SDS011;20508;50.834;3.160;2022-08-04T11:44:15;7.25;;;6.45;;
34248;SDS011;20508;50.834;3.160;2022-08-04T11:47:08;7.93;;;6.40;;
34248;SDS011;20508;50.834;3.160;2022-08-04T11:49:45;11.30;;;7.05;;
34248;SDS011;20508;50.834;3.160;2022-08-04T11:54:43;8.80;;;6.55;;
34248;SDS011;20508;50.834;3.160;2022-08-04T11:57:11;6.65;;;6.05;;
34248;SDS011;20508;50.834;3.160;2022-08-04T11:59:38;7.93;;;6.22;;
34248;SDS011;20508;50.834;3.160;2022-08-04T12:05:01;7.10;;;6.32;;
34248;SDS011;20508;50.834;3.160;2022-08-04T12:07:36;6.47;;;5.60;;
34248;SDS011;20508;50.834;3.160;2022-08-04T12:15:28;6.45;;;5.78;;
34248;SDS011;20508;50.834;3.160;2022-08-04T12:18:06;5.85;;;5.28;;
34248;SDS011;20508;50.834;3.160;2022-08-04T12:20:57;7.38;;;5.93;;
34248;SDS011;20508;50.834;3.160;2022-08-04T12:24:01;5.78;;;5.28;;
34248;SDS011;20508;50.834;3.160;2022-08-04T12:26:27;6.03;;;5.53;;
34248;SDS011;20508;50.834;3.160;2022-08-04T12:28:57;5.83;;;5.27;;
34248;SDS011;20508;50.834;3.160;2022-08-04T12:31:25;5.18;;;4.78;;
34248;SDS011;20508;50.834;3.160;2022-08-04T12:34:03;5.10;;;4.70;;
34248;SDS011;20508;50.834;3.160;2022-08-04T12:39:26;7.50;;;5.28;;
34248;SDS011;20508;50.834;3.160;2022-08-04T12:44:48;5.88;;;5.38;;
34248;SDS011;20508;50.834;3.160;2022-08-04T12:47:20;7.88;;;5.45;;
34248;SDS011;20508;50.834;3.160;2022-08-04T12:49:48;6.53;;;5.85;;
34248;SDS011;20508;50.834;3.160;2022-08-04T12:52:15;6.15;;;5.47;;
34248;SDS011;20508;50.834;3.160;2022-08-04T12:54:44;6.13;;;5.13;;
34248;SDS011;20508;50.834;3.160;2022-08-04T12:57:16;5.50;;;5.00;;
34248;SDS011;20508;50.834;3.160;2022-08-04T12:59:43;5.97;;;5.25;;
34248;SDS011;20508;50.834;3.160;2022-08-04T13:02:15;5.72;;;5.20;;
34248;SDS011;20508;50.834;3.160;2022-08-04T13:04:54;5.60;;;5.10;;
34248;SDS011;20508;50.834;3.160;2022-08-04T13:07:25;5.18;;;4.75;;
34248;SDS011;20508;50.834;3.160;2022-08-04T13:09:51;5.43;;;4.90;;
34248;SDS011;20508;50.834;3.160;2022-08-04T13:12:19;7.65;;;4.93;;
34248;SDS011;20508;50.834;3.160;2022-08-04T13:14:49;5.10;;;4.70;;
34248;SDS011;20508;50.834;3.160;2022-08-04T13:17:17;5.50;;;5.10;;
34248;SDS011;20508;50.834;3.160;2022-08-04T13:19:47;5.35;;;4.95;;
34248;SDS011;20508;50.834;3.160;2022-08-04T13:22:25;5.00;;;4.60;;
34248;SDS011;20508;50.834;3.160;2022-08-04T13:24:54;5.20;;;4.70;;
34248;SDS011;20508;50.834;3.160;2022-08-04T13:27:23;6.32;;;5.60;;
34248;SDS011;20508;50.834;3.160;2022-08-04T13:29:50;5.00;;;4.60;;
34248;SDS011;20508;50.834;3.160;2022-08-04T13:32:20;5.00;;;4.60;;
34248;SDS011;20508;50.834;3.160;2022-08-04T13:34:49;5.50;;;5.00;;
34248;SDS011;20508;50.834;3.160;2022-08-04T13:37:18;5.43;;;4.45;;
34248;SDS011;20508;50.834;3.160;2022-08-04T13:39:49;5.32;;;4.82;;
34248;SDS011;20508;50.834;3.160;2022-08-04T13:42:15;4.60;;;4.30;;
34248;SDS011;20508;50.834;3.160;2022-08-04T13:44:43;5.25;;;4.60;;
34248;SDS011;20508;50.834;3.160;2022-08-04T13:47:13;4.30;;;4.00;;
34248;SDS011;20508;50.834;3.160;2022-08-04T13:52:29;5.03;;;4.20;;
34248;SDS011;20508;50.834;3.160;2022-08-04T13:54:55;4.72;;;4.32;;
34248;SDS011;20508;50.834;3.160;2022-08-04T13:57:25;4.90;;;4.40;;
34248;SDS011;20508;50.834;3.160;2022-08-04T13:59:56;5.35;;;4.35;;
34248;SDS011;20508;50.834;3.160;2022-08-04T14:02:45;4.90;;;4.40;;
34248;SDS011;20508;50.834;3.160;2022-08-04T14:05:16;4.72;;;4.25;;
34248;SDS011;20508;50.834;3.160;2022-08-04T14:07:53;4.88;;;4.40;;
34248;SDS011;20508;50.834;3.160;2022-08-04T14:10:40;6.97;;;4.00;;
34248;SDS011;20508;50.834;3.160;2022-08-04T14:13:06;4.30;;;3.92;;
34248;SDS011;20508;50.834;3.160;2022-08-04T14:15:33;4.85;;;4.10;;
34248;SDS011;20508;50.834;3.160;2022-08-04T14:18:35;5.90;;;4.85;;
34248;SDS011;20508;50.834;3.160;2022-08-04T14:20:57;5.10;;;4.05;;
34248;SDS011;20508;50.834;3.160;2022-08-04T14:23:39;7.45;;;4.28;;
34248;SDS011;20508;50.834;3.160;2022-08-04T14:26:14;5.90;;;4.10;;
34248;SDS011;20508;50.834;3.160;2022-08-04T14:28:43;4.28;;;3.90;;
34248;SDS011;20508;50.834;3.160;2022-08-04T14:31:10;8.88;;;3.97;;
34248;SDS011;20508;50.834;3.160;2022-08-04T14:33:39;9.10;;;4.20;;
34248;SDS011;20508;50.834;3.160;2022-08-04T14:36:06;4.47;;;4.07;;
34248;SDS011;20508;50.834;3.160;2022-08-04T14:38:40;4.18;;;3.70;;
34248;SDS011;20508;50.834;3.160;2022-08-04T14:41:10;4.70;;;4.07;;
34248;SDS011;20508;50.834;3.160;2022-08-04T14:43:43;4.95;;;3.75;;
34248;SDS011;20508;50.834;3.160;2022-08-04T14:46:12;4.18;;;3.72;;
34248;SDS011;20508;50.834;3.160;2022-08-04T14:48:39;4.25;;;3.92;;
34248;SDS011;20508;50.834;3.160;2022-08-04T14:51:25;4.00;;;3.70;;
34248;SDS011;20508;50.834;3.160;2022-08-04T14:53:51;5.25;;;3.30;;
34248;SDS011;20508;50.834;3.160;2022-08-04T14:56:17;7.63;;;3.55;;
34248;SDS011;20508;50.834;3.160;2022-08-04T14:58:43;5.28;;;3.65;;
34248;SDS011;20508;50.834;3.160;2022-08-04T15:01:09;6.82;;;3.70;;
34248;SDS011;20508;50.834;3.160;2022-08-04T15:03:38;4.22;;;3.83;;
34248;SDS011;20508;50.834;3.160;2022-08-04T15:06:06;3.85;;;3.45;;
34248;SDS011;20508;50.834;3.160;2022-08-04T15:08:32;4.18;;;3.70;;
34248;SDS011;20508;50.834;3.160;2022-08-04T15:10:59;8.85;;;3.58;;
34248;SDS011;20508;50.834;3.160;2022-08-04T15:13:27;3.90;;;3.47;;
34248;SDS011;20508;50.834;3.160;2022-08-04T15:15:56;3.45;;;3.15;;
34248;SDS011;20508;50.834;3.160;2022-08-04T15:18:23;4.40;;;3.65;;
34248;SDS011;20508;50.834;3.160;2022-08-04T15:23:21;3.50;;;3.22;;
34248;SDS011;20508;50.834;3.160;2022-08-04T15:25:49;5.28;;;3.67;;
34248;SDS011;20508;50.834;3.160;2022-08-04T15:28:18;3.40;;;3.10;;
34248;SDS011;20508;50.834;3.160;2022-08-04T15:30:49;5.93;;;3.63;;
34248;SDS011;20508;50.834;3.160;2022-08-04T15:33:18;4.80;;;4.05;;
34248;SDS011;20508;50.834;3.160;2022-08-04T15:35:48;8.25;;;3.70;;
34248;SDS011;20508;50.834;3.160;2022-08-04T15:38:30;6.20;;;4.10;;
34248;SDS011;20508;50.834;3.160;2022-08-04T15:41:04;4.88;;;3.58;;
34248;SDS011;20508;50.834;3.160;2022-08-04T15:43:41;7.55;;;3.47;;
34248;SDS011;20508;50.834;3.160;2022-08-04T15:46:15;4.88;;;3.55;;
34248;SDS011;20508;50.834;3.160;2022-08-04T15:49:14;3.53;;;3.22;;
34248;SDS011;20508;50.834;3.160;2022-08-04T15:51:43;3.10;;;2.80;;
34248;SDS011;20508;50.834;3.160;2022-08-04T15:56:47;4.60;;;3.80;;
34248;SDS011;20508;50.834;3.160;2022-08-04T16:01:40;4.28;;;2.88;;
34248;SDS011;20508;50.834;3.160;2022-08-04T16:04:23;4.57;;;2.80;;
34248;SDS011;20508;50.834;3.160;2022-08-04T16:06:49;4.57;;;3.13;;
34248;SDS011;20508;50.834;3.160;2022-08-04T16:09:20;3.45;;;2.80;;
34248;SDS011;20508;50.834;3.160;2022-08-04T16:11:48;3.45;;;2.83;;
34248;SDS011;20508;50.834;3.160;2022-08-04T16:14:14;3.15;;;2.85;;
34248;SDS011;20508;50.834;3.160;2022-08-04T16:19:07;3.20;;;2.78;;
34248;SDS011;20508;50.834;3.160;2022-08-04T16:21:54;2.58;;;2.28;;
34248;SDS011;20508;50.834;3.160;2022-08-04T16:26:49;2.85;;;2.45;;
34248;SDS011;20508;50.834;3.160;2022-08-04T16:34:37;6.82;;;2.90;;
34248;SDS011;20508;50.834;3.160;2022-08-04T16:37:07;11.88;;;3.92;;
34248;SDS011;20508;50.834;3.160;2022-08-04T16:39:35;12.20;;;3.33;;
34248;SDS011;20508;50.834;3.160;2022-08-04T16:50:15;6.63;;;3.05;;
34248;SDS011;20508;50.834;3.160;2022-08-04T16:52:45;6.43;;;2.92;;
34248;SDS011;20508;50.834;3.160;2022-08-04T16:55:14;10.15;;;3.10;;
34248;SDS011;20508;50.834;3.160;2022-08-04T16:57:45;7.45;;;3.47;;
34248;SDS011;20508;50.834;3.160;2022-08-04T17:00:11;4.88;;;3.05;;
34248;SDS011;20508;50.834;3.160;2022-08-04T17:02:37;4.15;;;3.00;;
34248;SDS011;20508;50.834;3.160;2022-08-04T17:05:04;4.05;;;2.90;;
34248;SDS011;20508;50.834;3.160;2022-08-04T17:07:34;4.38;;;2.92;;
34248;SDS011;20508;50.834;3.160;2022-08-04T17:10:16;3.88;;;2.58;;
34248;SDS011;20508;50.834;3.160;2022-08-04T17:12:42;3.83;;;2.40;;
34248;SDS011;20508;50.834;3.160;2022-08-04T17:15:29;3.75;;;2.75;;
34248;SDS011;20508;50.834;3.160;2022-08-04T17:18:13;4.40;;;2.30;;
34248;SDS011;20508;50.834;3.160;2022-08-04T17:20:41;6.07;;;2.63;;
34248;SDS011;20508;50.834;3.160;2022-08-04T17:25:59;2.90;;;2.50;;
34248;SDS011;20508;50.834;3.160;2022-08-04T17:28:28;3.60;;;2.33;;
34248;SDS011;20508;50.834;3.160;2022-08-04T17:30:54;3.90;;;2.70;;
34248;SDS011;20508;50.834;3.160;2022-08-04T17:33:22;2.67;;;2.38;;
34248;SDS011;20508;50.834;3.160;2022-08-04T17:35:50;2.40;;;2.20;;
34248;SDS011;20508;50.834;3.160;2022-08-04T17:38:17;3.22;;;2.22;;
34248;SDS011;20508;50.834;3.160;2022-08-04T17:40:50;4.85;;;3.03;;
34248;SDS011;20508;50.834;3.160;2022-08-04T17:43:17;2.30;;;2.00;;
34248;SDS011;20508;50.834;3.160;2022-08-04T17:45:43;2.45;;;2.25;;
34248;SDS011;20508;50.834;3.160;2022-08-04T17:48:19;2.58;;;2.38;;
34248;SDS011;20508;50.834;3.160;2022-08-04T17:50:47;3.63;;;2.38;;
34248;SDS011;20508;50.834;3.160;2022-08-04T17:53:13;3.28;;;2.40;;
34248;SDS011;20508;50.834;3.160;2022-08-04T17:55:44;3.40;;;2.33;;
34248;SDS011;20508;50.834;3.160;2022-08-04T17:58:15;2.83;;;2.17;;
34248;SDS011;20508;50.834;3.160;2022-08-04T18:00:45;3.22;;;2.70;;
34248;SDS011;20508;50.834;3.160;2022-08-04T18:03:23;4.55;;;2.47;;
34248;SDS011;20508;50.834;3.160;2022-08-04T18:05:49;3.10;;;2.47;;
34248;SDS011;20508;50.834;3.160;2022-08-04T18:08:21;2.22;;;2.03;;
34248;SDS011;20508;50.834;3.160;2022-08-04T18:10:49;4.28;;;2.35;;
34248;SDS011;20508;50.834;3.160;2022-08-04T18:13:16;2.55;;;2.35;;
34248;SDS011;20508;50.834;3.160;2022-08-04T18:15:42;2.83;;;2.08;;
34248;SDS011;20508;50.834;3.160;2022-08-04T18:18:19;3.08;;;2.28;;
34248;SDS011;20508;50.834;3.160;2022-08-04T18:20:46;2.42;;;2.22;;
34248;SDS011;20508;50.834;3.160;2022-08-04T18:23:13;3.30;;;1.70;;
34248;SDS011;20508;50.834;3.160;2022-08-04T18:25:43;5.45;;;2.38;;
34248;SDS011;20508;50.834;3.160;2022-08-04T18:28:13;2.63;;;2.03;;
34248;SDS011;20508;50.834;3.160;2022-08-04T18:30:39;3.97;;;2.25;;
34248;SDS011;20508;50.834;3.160;2022-08-04T18:33:05;3.75;;;2.38;;
34248;SDS011;20508;50.834;3.160;2022-08-04T18:35:34;2.58;;;2.22;;
34248;SDS011;20508;50.834;3.160;2022-08-04T18:38:01;2.78;;;1.98;;
34248;SDS011;20508;50.834;3.160;2022-08-04T18:40:28;3.28;;;2.65;;
34248;SDS011;20508;50.834;3.160;2022-08-04T18:42:54;3.30;;;2.35;;
34248;SDS011;20508;50.834;3.160;2022-08-04T18:45:20;2.10;;;1.90;;
34248;SDS011;20508;50.834;3.160;2022-08-04T18:47:48;2.55;;;1.90;;
34248;SDS011;20508;50.834;3.160;2022-08-04T18:50:15;3.10;;;2.10;;
34248;SDS011;20508;50.834;3.160;2022-08-04T18:52:41;2.30;;;2.10;;
34248;SDS011;20508;50.834;3.160;2022-08-04T18:55:07;3.28;;;1.98;;
34248;SDS011;20508;50.834;3.160;2022-08-04T18:57:33;2.72;;;2.03;;
34248;SDS011;20508;50.834;3.160;2022-08-04T18:59:59;4.10;;;2.15;;
34248;SDS011;20508;50.834;3.160;2022-08-04T19:02:25;3.20;;;2.25;;
34248;SDS011;20508;50.834;3.160;2022-08-04T19:04:51;4.30;;;2.10;;
34248;SDS011;20508;50.834;3.160;2022-08-04T19:07:17;3.67;;;1.85;;
34248;SDS011;20508;50.834;3.160;2022-08-04T19:09:43;3.67;;;1.80;;
34248;SDS011;20508;50.834;3.160;2022-08-04T19:12:09;4.10;;;1.63;;
34248;SDS011;20508;50.834;3.160;2022-08-04T19:14:35;4.57;;;2.75;;
34248;SDS011;20508;50.834;3.160;2022-08-04T19:17:02;2.65;;;2.25;;
34248;SDS011;20508;50.834;3.160;2022-08-04T19:19:29;3.92;;;2.05;;
34248;SDS011;20508;50.834;3.160;2022-08-04T19:21:55;1.92;;;1.80;;
34248;SDS011;20508;50.834;3.160;2022-08-04T19:24:21;3.17;;;2.08;;
34248;SDS011;20508;50.834;3.160;2022-08-04T19:26:47;3.35;;;2.70;;
34248;SDS011;20508;50.834;3.160;2022-08-04T19:29:13;3.80;;;1.90;;
34248;SDS011;20508;50.834;3.160;2022-08-04T19:31:40;3.13;;;1.98;;